sensor_id;sensor_type;location;lat;lon;timestamp;temperature;humidity
54824;DHT22;40724;53.196;5.980;2022-09-02T03:17:46;21.20;99.90
54824;DHT22;40724;53.196;5.980;2022-09-02T03:20:12;15.40;95.30
54824;DHT22;40724;53.196;5.980;2022-09-02T03:22:41;15.10;95.50
54824;DHT22;40724;53.196;5.980;2022-09-02T03:25:10;15.10;95.50
54824;DHT22;40724;53.196;5.980;2022-09-02T03:27:38;15.10;95.50
54824;DHT22;40724;53.196;5.980;2022-09-02T03:30:06;15.10;95.50
54824;DHT22;40724;53.196;5.980;2022-09-02T03:32:33;15.10;95.50
54824;DHT22;40724;53.196;5.980;2022-09-02T03:35:00;15.10;95.50
54824;DHT22;40724;53.196;5.980;2022-09-02T03:37:26;15.10;95.50
54824;DHT22;40724;53.196;5.980;2022-09-02T03:39:52;15.10;95.50
54824;DHT22;40724;53.196;5.980;2022-09-02T03:42:18;15.10;95.50
54824;DHT22;40724;53.196;5.980;2022-09-02T03:44:44;15.10;95.50
54824;DHT22;40724;53.196;5.980;2022-09-02T03:47:10;15.10;95.60
54824;DHT22;40724;53.196;5.980;2022-09-02T03:49:38;15.10;95.60
54824;DHT22;40724;53.196;5.980;2022-09-02T04:01:49;15.10;95.60
54824;DHT22;40724;53.196;5.980;2022-09-02T04:04:18;14.90;95.50
54824;DHT22;40724;53.196;5.980;2022-09-02T04:06:44;14.90;95.80
54824;DHT22;40724;53.196;5.980;2022-09-02T04:09:10;14.90;95.80
54824;DHT22;40724;53.196;5.980;2022-09-02T04:11:37;14.90;95.80
54824;DHT22;40724;53.196;5.980;2022-09-02T04:14:08;14.90;95.80
54824;DHT22;40724;53.196;5.980;2022-09-02T04:16:34;14.90;95.80
54824;DHT22;40724;53.196;5.980;2022-09-02T04:19:01;14.90;95.80
54824;DHT22;40724;53.196;5.980;2022-09-02T04:21:30;14.80;95.80
54824;DHT22;40724;53.196;5.980;2022-09-02T04:23:56;14.80;95.80
54824;DHT22;40724;53.196;5.980;2022-09-02T04:26:22;14.70;95.90
54824;DHT22;40724;53.196;5.980;2022-09-02T17:00:41;14.70;95.90
54824;DHT22;40724;53.196;5.980;2022-09-02T17:03:09;24.30;56.20
54824;DHT22;40724;53.196;5.980;2022-09-02T17:05:35;24.10;56.20
54824;DHT22;40724;53.196;5.980;2022-09-02T17:08:00;24.00;56.10
54824;DHT22;40724;53.196;5.980;2022-09-02T17:10:31;23.90;56.30
54824;DHT22;40724;53.196;5.980;2022-09-02T17:12:57;23.90;56.70
54824;DHT22;40724;53.196;5.980;2022-09-02T17:15:24;23.70;56.90
54824;DHT22;40724;53.196;5.980;2022-09-02T17:17:51;23.70;57.20
54824;DHT22;40724;53.196;5.980;2022-09-02T17:20:17;23.60;57.30
54824;DHT22;40724;53.196;5.980;2022-09-02T17:22:43;23.60;57.40
54824;DHT22;40724;53.196;5.980;2022-09-02T17:25:09;23.60;57.60
54824;DHT22;40724;53.196;5.980;2022-09-02T17:27:35;23.50;57.80
54824;DHT22;40724;53.196;5.980;2022-09-02T17:30:06;23.50;58.10
54824;DHT22;40724;53.196;5.980;2022-09-02T17:32:32;23.50;58.00
54824;DHT22;40724;53.196;5.980;2022-09-02T17:34:57;23.40;58.00
